createdAt,value
2017-10-19T00:00:41.511Z,99.90
2017-10-19T00:03:09.020Z,99.90
2017-10-19T00:05:39.742Z,99.90
2017-10-19T00:08:07.251Z,99.90
2017-10-19T00:10:34.774Z,99.90
2017-10-19T00:13:02.260Z,99.90
2017-10-19T00:15:29.745Z,99.90
2017-10-19T00:17:57.246Z,99.90
2017-10-19T00:20:24.725Z,99.90
2017-10-19T00:22:52.218Z,99.90
2017-10-19T00:25:19.732Z,99.90
2017-10-19T00:27:47.222Z,99.90
2017-10-19T00:30:14.714Z,99.90
2017-10-19T00:32:42.225Z,99.90
2017-10-19T00:35:09.710Z,99.90
2017-10-19T00:37:37.257Z,99.90
2017-10-19T00:40:04.760Z,99.90
2017-10-19T00:42:32.254Z,99.90
2017-10-19T00:44:59.765Z,99.90
2017-10-19T00:47:27.269Z,99.90
2017-10-19T00:49:54.758Z,99.90
2017-10-19T00:52:22.266Z,99.90
2017-10-19T00:54:49.766Z,99.90
2017-10-19T00:57:17.250Z,99.90
2017-10-19T00:59:45.531Z,99.90
2017-10-19T01:02:13.786Z,99.90
2017-10-19T01:04:41.281Z,99.90
2017-10-19T01:07:09.570Z,99.90
2017-10-19T01:09:37.110Z,99.90
2017-10-19T01:12:04.645Z,99.90
2017-10-19T01:14:32.165Z,99.90
2017-10-19T01:16:59.649Z,99.90
2017-10-19T01:19:27.148Z,99.90
2017-10-19T01:21:55.559Z,99.90
2017-10-19T01:24:23.041Z,99.90
2017-10-19T01:26:50.534Z,99.90
2017-10-19T01:29:18.818Z,99.90
2017-10-19T01:31:47.065Z,99.90
2017-10-19T01:34:14.570Z,99.90
2017-10-19T01:36:42.088Z,99.90
2017-10-19T01:39:09.593Z,99.90
2017-10-19T01:41:37.860Z,99.90
2017-10-19T01:44:06.143Z,99.90
2017-10-19T01:46:33.666Z,99.90
2017-10-19T01:49:01.162Z,99.90
2017-10-19T01:51:29.442Z,99.90
2017-10-19T01:53:58.036Z,99.90
2017-10-19T01:56:25.551Z,99.90
2017-10-19T01:58:53.055Z,99.90
2017-10-19T02:01:20.595Z,99.90
2017-10-19T02:03:48.113Z,99.90
2017-10-19T02:06:15.623Z,99.90
2017-10-19T02:08:43.893Z,99.90
2017-10-19T02:11:12.151Z,99.90
2017-10-19T02:13:39.666Z,99.90
2017-10-19T02:16:07.174Z,99.90
2017-10-19T02:18:34.667Z,99.90
2017-10-19T02:21:02.180Z,99.90
2017-10-19T02:23:29.697Z,99.90
2017-10-19T02:25:57.210Z,99.90
2017-10-19T02:28:24.698Z,99.90
2017-10-19T02:30:52.206Z,99.90
2017-10-19T02:33:19.702Z,99.90
2017-10-19T02:35:47.951Z,99.90
2017-10-19T02:38:15.460Z,99.90
2017-10-19T02:40:42.942Z,99.90
2017-10-19T02:43:10.428Z,99.90
2017-10-19T02:45:37.930Z,99.90
2017-10-19T02:48:05.674Z,99.90
2017-10-19T02:50:33.164Z,99.90
2017-10-19T02:53:00.679Z,99.90
2017-10-19T02:55:28.181Z,99.90
2017-10-19T02:57:55.715Z,99.90
2017-10-19T03:00:23.298Z,99.90
2017-10-19T03:02:50.788Z,99.90
2017-10-19T03:05:18.276Z,99.90
2017-10-19T03:07:45.783Z,99.90
2017-10-19T03:10:13.282Z,99.90
2017-10-19T03:12:40.801Z,99.90
2017-10-19T03:15:08.285Z,99.90
2017-10-19T03:17:35.774Z,99.90
2017-10-19T03:20:03.282Z,99.90
2017-10-19T03:22:30.770Z,99.90
2017-10-19T03:24:58.259Z,99.90
2017-10-19T03:27:26.529Z,99.90
2017-10-19T03:29:54.029Z,99.90
2017-10-19T03:32:21.540Z,99.90
2017-10-19T03:34:49.062Z,99.90
2017-10-19T03:37:16.549Z,99.90
2017-10-19T03:39:44.053Z,99.90
2017-10-19T03:42:11.562Z,99.90
2017-10-19T03:44:39.050Z,99.90
2017-10-19T03:47:06.541Z,99.90
2017-10-19T03:49:34.052Z,99.90
2017-10-19T03:52:01.541Z,99.90
2017-10-19T03:54:29.031Z,99.90
2017-10-19T03:56:56.543Z,99.90
2017-10-19T03:59:24.038Z,99.90
2017-10-19T04:01:51.525Z,99.90
2017-10-19T04:04:19.034Z,99.90
2017-10-19T04:06:47.286Z,99.90
2017-10-19T04:09:14.787Z,99.90
2017-10-19T04:11:42.270Z,99.90
2017-10-19T04:14:09.791Z,99.90
2017-10-19T04:16:37.274Z,99.90
2017-10-19T04:19:04.757Z,99.90
2017-10-19T04:21:32.266Z,99.90
2017-10-19T04:24:00.522Z,99.90
2017-10-19T04:26:28.773Z,99.90
2017-10-19T04:28:56.289Z,99.90
2017-10-19T04:31:23.776Z,99.90
2017-10-19T04:33:51.289Z,99.90
2017-10-19T04:36:19.542Z,99.90
2017-10-19T04:38:47.062Z,99.90
2017-10-19T04:41:14.546Z,99.90
2017-10-19T04:43:42.043Z,99.90
2017-10-19T04:46:09.551Z,99.90
2017-10-19T04:48:37.046Z,99.90
2017-10-19T04:51:04.530Z,99.90
2017-10-19T04:53:32.041Z,99.90
2017-10-19T04:55:59.530Z,99.90
2017-10-19T04:58:29.865Z,99.90
2017-10-19T05:00:57.455Z,99.90
2017-10-19T05:03:25.011Z,99.90
2017-10-19T05:05:52.630Z,99.90
2017-10-19T05:08:20.934Z,99.90
2017-10-19T05:10:48.422Z,99.90
2017-10-19T05:13:15.914Z,99.90
2017-10-19T05:15:43.483Z,99.90
2017-10-19T05:18:11.758Z,99.90
2017-10-19T05:20:39.264Z,99.90
2017-10-19T05:23:07.627Z,99.90
2017-10-19T05:25:35.139Z,99.90
2017-10-19T05:28:02.655Z,99.90
2017-10-19T05:30:30.171Z,99.90
2017-10-19T05:32:57.676Z,99.90
2017-10-19T05:35:25.182Z,99.90
2017-10-19T05:37:52.700Z,99.90
2017-10-19T05:40:20.226Z,99.90
2017-10-19T05:42:48.507Z,99.90
2017-10-19T05:45:16.783Z,99.90
2017-10-19T05:47:45.047Z,99.90
2017-10-19T05:50:12.563Z,99.90
2017-10-19T05:52:40.071Z,99.90
2017-10-19T05:55:08.326Z,99.90
2017-10-19T05:57:35.810Z,99.90
2017-10-19T06:00:04.101Z,99.90
2017-10-19T06:02:32.358Z,99.90
2017-10-19T06:05:00.612Z,99.90
2017-10-19T06:07:28.128Z,99.90
2017-10-19T06:09:55.631Z,99.90
2017-10-19T06:12:23.131Z,99.90
2017-10-19T06:14:50.678Z,99.90
2017-10-19T06:17:30.679Z,99.90
2017-10-19T06:19:58.215Z,99.90
2017-10-19T06:22:25.724Z,99.90
2017-10-19T06:24:53.985Z,99.90
2017-10-19T06:27:21.493Z,99.90
2017-10-19T06:29:49.746Z,99.90
2017-10-19T06:32:17.237Z,99.90
2017-10-19T06:34:44.754Z,99.90
2017-10-19T06:37:12.246Z,99.90
2017-10-19T06:39:40.498Z,99.90
2017-10-19T06:42:08.015Z,99.90
2017-10-19T06:44:35.505Z,99.90
2017-10-19T06:47:02.999Z,99.90
2017-10-19T06:49:31.286Z,99.90
2017-10-19T06:51:58.774Z,99.90
2017-10-19T06:54:26.263Z,99.90
2017-10-19T06:56:53.791Z,99.90
2017-10-19T06:59:21.288Z,99.90
2017-10-19T07:01:48.778Z,99.90
2017-10-19T07:04:16.296Z,99.90
2017-10-19T07:06:43.791Z,99.90
2017-10-19T07:09:12.044Z,99.90
2017-10-19T07:11:39.553Z,99.90
2017-10-19T07:14:07.052Z,99.90
2017-10-19T07:16:34.547Z,99.90
2017-10-19T07:19:02.071Z,99.90
2017-10-19T07:21:29.575Z,99.90
2017-10-19T07:23:57.064Z,99.90
2017-10-19T07:26:24.568Z,99.90
2017-10-19T07:28:52.122Z,99.90
2017-10-19T07:31:19.615Z,99.90
2017-10-19T07:33:47.102Z,99.90
2017-10-19T07:36:14.634Z,99.90
2017-10-19T07:38:42.124Z,99.90
2017-10-19T07:41:09.618Z,99.90
2017-10-19T07:43:37.144Z,99.90
2017-10-19T07:46:04.628Z,99.90
2017-10-19T07:48:32.126Z,99.90
2017-10-19T07:50:59.651Z,99.90
2017-10-19T07:53:27.185Z,99.90
2017-10-19T07:55:54.679Z,99.90
2017-10-19T07:58:22.957Z,99.90
2017-10-19T08:00:51.218Z,99.90
2017-10-19T08:03:18.728Z,99.90
2017-10-19T08:05:46.250Z,99.90
2017-10-19T08:08:14.510Z,99.90
2017-10-19T08:10:42.003Z,99.90
2017-10-19T08:13:10.291Z,99.90
2017-10-19T08:15:37.782Z,99.90
2017-10-19T08:18:05.278Z,99.90
2017-10-19T08:20:32.798Z,99.90
2017-10-19T08:23:00.307Z,99.90
2017-10-19T08:25:27.802Z,99.90
2017-10-19T08:27:55.299Z,99.90
2017-10-19T08:30:22.810Z,99.90
2017-10-19T08:32:50.308Z,99.90
2017-10-19T08:35:17.802Z,99.90
2017-10-19T08:37:45.322Z,99.90
2017-10-19T08:40:12.818Z,99.90
2017-10-19T08:42:41.102Z,99.90
2017-10-19T08:45:09.373Z,99.90
2017-10-19T08:47:37.639Z,99.90
2017-10-19T08:50:05.136Z,99.90
2017-10-19T08:52:32.653Z,99.90
2017-10-19T08:55:00.147Z,99.90
2017-10-19T08:57:27.660Z,99.90
2017-10-19T08:59:55.200Z,99.90
2017-10-19T09:02:22.707Z,99.90
2017-10-19T09:04:50.231Z,99.90
2017-10-19T09:07:17.728Z,99.90
2017-10-19T09:09:45.991Z,99.90
2017-10-19T09:12:13.503Z,99.90
2017-10-19T09:14:41.002Z,99.90
2017-10-19T09:17:08.490Z,99.90
2017-10-19T09:19:36.007Z,99.90
2017-10-19T09:22:03.503Z,99.90
2017-10-19T09:24:31.029Z,99.90
2017-10-19T09:26:58.530Z,99.90
2017-10-19T09:29:26.043Z,99.90
2017-10-19T09:31:53.563Z,99.90
2017-10-19T09:34:21.058Z,99.90
2017-10-19T09:36:48.575Z,99.90
2017-10-19T09:39:16.095Z,99.90
2017-10-19T09:41:43.586Z,99.90
2017-10-19T09:44:11.107Z,99.90
2017-10-19T09:46:38.599Z,99.90
2017-10-19T09:49:06.866Z,99.90
2017-10-19T09:51:34.386Z,99.90
2017-10-19T09:54:01.880Z,99.90
2017-10-19T09:56:30.137Z,99.90
2017-10-19T09:58:57.664Z,99.90
2017-10-19T10:01:25.191Z,99.90
2017-10-19T10:03:52.687Z,99.90
2017-10-19T10:06:20.187Z,99.90
2017-10-19T10:08:47.707Z,99.90
2017-10-19T10:11:15.213Z,99.90
2017-10-19T10:13:43.472Z,99.90
2017-10-19T10:16:10.998Z,99.90
2017-10-19T10:18:38.507Z,99.90
2017-10-19T10:21:06.791Z,99.90
2017-10-19T10:23:34.306Z,99.90
2017-10-19T10:26:01.801Z,99.90
2017-10-19T10:28:30.092Z,99.90
2017-10-19T10:30:57.594Z,99.90
2017-10-19T10:33:25.086Z,99.90
2017-10-19T10:35:52.582Z,99.90
2017-10-19T10:38:20.090Z,99.90
2017-10-19T10:40:47.594Z,99.90
2017-10-19T10:43:15.111Z,99.90
2017-10-19T10:45:42.611Z,99.90
2017-10-19T10:48:10.110Z,99.90
2017-10-19T10:50:37.641Z,99.90
2017-10-19T10:53:05.142Z,99.90
2017-10-19T10:55:43.443Z,99.90
2017-10-19T10:58:10.954Z,99.80
2017-10-19T11:00:38.451Z,98.90
2017-10-19T11:03:05.948Z,99.10
2017-10-19T11:05:33.469Z,98.40
2017-10-19T11:08:00.966Z,98.50
2017-10-19T11:10:28.466Z,98.70
2017-10-19T11:12:56.035Z,97.80
2017-10-19T11:15:23.527Z,97.40
2017-10-19T11:17:51.026Z,96.90
2017-10-19T11:20:18.548Z,96.70
2017-10-19T11:22:46.042Z,95.80
2017-10-19T11:25:14.307Z,95.50
2017-10-19T11:27:42.604Z,94.80
2017-10-19T11:30:10.107Z,94.80
2017-10-19T11:32:37.602Z,94.10
2017-10-19T11:35:05.883Z,94.10
2017-10-19T11:37:34.142Z,93.50
2017-10-19T11:40:01.634Z,93.50
2017-10-19T11:42:29.154Z,94.00
2017-10-19T11:44:56.649Z,94.60
2017-10-19T11:47:24.911Z,94.40
2017-10-19T11:49:52.429Z,94.40
2017-10-19T11:52:19.938Z,94.80
2017-10-19T11:54:48.192Z,94.50
2017-10-19T11:57:15.699Z,94.50
2017-10-19T11:59:43.210Z,94.50
2017-10-19T12:02:10.711Z,94.50
2017-10-19T12:04:38.233Z,94.00
2017-10-19T12:07:05.719Z,94.00
2017-10-19T12:09:33.210Z,94.00
2017-10-19T12:12:00.722Z,93.30
2017-10-19T12:14:28.979Z,93.20
2017-10-19T12:16:56.474Z,93.20
2017-10-19T12:19:23.983Z,93.10
2017-10-19T12:21:51.475Z,93.00
2017-10-19T12:24:19.726Z,93.00
2017-10-19T12:26:47.263Z,93.00
2017-10-19T12:29:14.759Z,92.70
2017-10-19T12:31:42.293Z,92.40
2017-10-19T12:34:09.798Z,92.30
2017-10-19T12:36:38.075Z,91.80
2017-10-19T12:39:06.326Z,90.30
2017-10-19T12:41:33.818Z,90.30
2017-10-19T12:44:01.339Z,90.10
2017-10-19T12:46:28.830Z,90.60
2017-10-19T12:48:56.324Z,90.00
2017-10-19T12:51:23.830Z,89.40
2017-10-19T12:53:51.318Z,87.80
2017-10-19T12:56:18.831Z,88.10
2017-10-19T12:58:46.348Z,89.90
2017-10-19T13:01:13.838Z,89.90
2017-10-19T13:03:41.343Z,88.30
2017-10-19T13:06:08.863Z,89.10
2017-10-19T13:08:36.351Z,87.30
2017-10-19T13:11:04.615Z,87.90
2017-10-19T13:13:32.131Z,87.90
2017-10-19T13:15:59.624Z,87.10
2017-10-19T13:18:27.113Z,86.90
2017-10-19T13:20:55.393Z,88.90
2017-10-19T13:23:22.907Z,88.90
2017-10-19T13:25:50.395Z,89.50
2017-10-19T13:28:18.650Z,90.40
2017-10-19T13:30:46.164Z,90.40
2017-10-19T13:33:13.659Z,91.00
2017-10-19T13:35:41.919Z,91.70
2017-10-19T13:38:09.442Z,91.30
2017-10-19T13:40:37.707Z,91.50
2017-10-19T13:43:05.967Z,91.70
2017-10-19T13:45:33.476Z,91.70
2017-10-19T13:48:01.754Z,91.00
2017-10-19T13:50:29.267Z,91.00
2017-10-19T13:52:56.751Z,90.80
2017-10-19T13:55:24.604Z,90.70
2017-10-19T13:57:52.890Z,91.20
2017-10-19T14:00:21.150Z,90.90
2017-10-19T14:02:48.678Z,90.90
2017-10-19T14:05:16.199Z,90.90
2017-10-19T14:07:43.690Z,90.90
2017-10-19T14:10:11.182Z,90.80
2017-10-19T14:12:38.702Z,90.70
2017-10-19T14:15:06.190Z,90.30
2017-10-19T14:17:33.678Z,90.10
2017-10-19T14:20:01.952Z,89.10
2017-10-19T14:22:29.433Z,89.00
2017-10-19T14:24:56.921Z,90.10
2017-10-19T14:27:24.426Z,90.00
2017-10-19T14:29:52.714Z,90.00
2017-10-19T14:32:20.978Z,90.00
2017-10-19T14:34:49.251Z,90.10
2017-10-19T14:37:17.553Z,90.20
2017-10-19T14:39:45.061Z,90.20
2017-10-19T14:42:12.583Z,90.40
2017-10-19T14:44:40.083Z,90.30
2017-10-19T14:47:07.597Z,90.30
2017-10-19T14:49:35.100Z,90.10
2017-10-19T14:52:02.595Z,89.60
2017-10-19T14:54:30.886Z,89.30
2017-10-19T14:56:58.416Z,89.30
2017-10-19T14:59:25.904Z,89.90
2017-10-19T15:01:53.419Z,89.20
2017-10-19T15:04:20.922Z,89.70
2017-10-19T15:06:48.425Z,89.50
2017-10-19T15:09:15.944Z,89.60
2017-10-19T15:11:43.430Z,90.00
2017-10-19T15:14:10.927Z,90.20
2017-10-19T15:16:38.450Z,90.80
2017-10-19T15:19:05.942Z,91.50
2017-10-19T15:21:33.459Z,92.00
2017-10-19T15:24:00.984Z,92.20
2017-10-19T15:26:28.470Z,92.30
2017-10-19T15:28:55.963Z,92.20
2017-10-19T15:31:23.480Z,92.30
2017-10-19T15:33:50.969Z,92.30
2017-10-19T15:36:18.462Z,92.30
2017-10-19T15:38:46.747Z,92.60
2017-10-19T15:41:15.002Z,92.80
2017-10-19T15:43:42.490Z,92.80
2017-10-19T15:46:10.776Z,93.10
2017-10-19T15:48:38.264Z,93.10
2017-10-19T15:51:13.645Z,93.40
2017-10-19T15:53:41.142Z,93.70
2017-10-19T15:56:08.638Z,94.00
2017-10-19T15:58:36.159Z,94.20
2017-10-19T16:01:03.653Z,94.40
2017-10-19T16:03:31.147Z,94.60
2017-10-19T16:05:58.658Z,94.80
2017-10-19T16:08:26.150Z,94.90
2017-10-19T16:10:53.653Z,95.10
2017-10-19T16:13:21.171Z,94.90
2017-10-19T16:15:48.666Z,94.90
2017-10-19T16:18:16.162Z,95.10
2017-10-19T16:20:43.676Z,94.90
2017-10-19T16:23:11.947Z,95.30
2017-10-19T16:25:39.448Z,95.30
2017-10-19T16:28:09.733Z,95.80
2017-10-19T16:30:38.231Z,96.10
2017-10-19T16:33:05.726Z,96.10
2017-10-19T16:35:34.400Z,96.10
2017-10-19T16:38:01.935Z,96.30
2017-10-19T16:40:30.191Z,96.90
2017-10-19T16:42:58.456Z,97.30
2017-10-19T16:45:25.981Z,97.20
2017-10-19T16:47:53.586Z,97.50
2017-10-19T16:50:21.856Z,98.10
2017-10-19T16:52:49.427Z,98.20
2017-10-19T16:55:17.770Z,98.80
2017-10-19T16:57:45.278Z,98.80
2017-10-19T17:00:12.795Z,99.10
2017-10-19T17:02:40.298Z,99.40
2017-10-19T17:05:08.599Z,99.90
2017-10-19T17:07:36.102Z,99.90
2017-10-19T17:10:03.672Z,99.90
2017-10-19T17:12:31.212Z,99.90
2017-10-19T17:14:58.751Z,99.90
2017-10-19T17:17:26.267Z,99.90
2017-10-19T17:19:53.927Z,99.90
2017-10-19T17:22:22.264Z,99.90
2017-10-19T17:24:50.191Z,99.90
2017-10-19T17:27:17.709Z,99.90
2017-10-19T17:29:45.202Z,99.90
2017-10-19T17:32:13.465Z,99.90
2017-10-19T17:34:40.994Z,99.90
2017-10-19T17:37:08.685Z,99.90
2017-10-19T17:39:36.405Z,99.90
2017-10-19T17:42:03.951Z,99.90
2017-10-19T17:44:31.451Z,99.90
2017-10-19T17:46:58.946Z,99.90
2017-10-19T17:49:27.229Z,99.90
2017-10-19T17:51:54.724Z,99.90
2017-10-19T17:54:22.220Z,99.90
2017-10-19T17:56:49.738Z,99.90
2017-10-19T17:59:17.231Z,99.90
2017-10-19T18:01:44.740Z,99.90
2017-10-19T18:04:12.266Z,99.90
2017-10-19T18:06:40.689Z,99.90
2017-10-19T18:09:08.203Z,99.90
2017-10-19T18:11:36.498Z,99.90
2017-10-19T18:14:04.000Z,99.90
2017-10-19T18:16:32.257Z,99.90
2017-10-19T18:18:59.782Z,99.90
2017-10-19T18:21:27.292Z,99.90
2017-10-19T18:23:54.894Z,99.90
2017-10-19T18:26:22.438Z,99.90
2017-10-19T18:28:49.938Z,99.90
2017-10-19T18:31:17.507Z,99.90
2017-10-19T18:33:45.258Z,99.90
2017-10-19T18:36:13.042Z,99.90
2017-10-19T18:38:40.660Z,99.90
2017-10-19T18:41:08.340Z,99.90
2017-10-19T18:43:36.047Z,99.90
2017-10-19T18:46:03.587Z,99.90
2017-10-19T18:48:31.309Z,99.90
2017-10-19T18:50:59.959Z,99.90
2017-10-19T18:53:27.633Z,99.90
2017-10-19T18:55:55.310Z,99.90
2017-10-19T18:58:22.881Z,99.90
2017-10-19T19:00:51.371Z,99.90
2017-10-19T19:03:19.042Z,99.90
2017-10-19T19:05:46.934Z,99.90
2017-10-19T19:08:14.620Z,99.90
2017-10-19T19:10:42.341Z,99.90
2017-10-19T19:13:10.216Z,99.90
2017-10-19T19:15:37.963Z,99.90
2017-10-19T19:18:05.654Z,99.90
2017-10-19T19:20:33.475Z,99.90
2017-10-19T19:23:01.307Z,99.90
2017-10-19T19:25:28.935Z,99.90
2017-10-19T19:27:56.631Z,99.90
2017-10-19T19:30:24.444Z,99.90
2017-10-19T19:32:51.981Z,99.90
2017-10-19T19:35:20.396Z,99.90
2017-10-19T19:37:48.017Z,99.90
2017-10-19T19:40:15.575Z,99.90
2017-10-19T19:42:43.116Z,99.90
2017-10-19T19:45:10.838Z,99.90
2017-10-19T19:47:39.196Z,99.90
2017-10-19T19:50:07.692Z,99.90
2017-10-19T19:52:36.040Z,99.90
2017-10-19T19:55:03.679Z,99.90
2017-10-19T19:57:31.885Z,99.90
2017-10-19T19:59:59.413Z,99.90
2017-10-19T20:02:28.645Z,99.90
2017-10-19T20:04:56.292Z,99.90
2017-10-19T20:07:24.460Z,99.90
2017-10-19T20:09:52.014Z,99.90
2017-10-19T20:12:19.777Z,99.90
2017-10-19T20:14:47.398Z,99.90
2017-10-19T20:17:14.977Z,99.90
2017-10-19T20:19:43.331Z,99.90
2017-10-19T20:22:10.935Z,99.90
2017-10-19T20:24:38.653Z,99.90
2017-10-19T20:27:07.470Z,99.90
2017-10-19T20:29:35.731Z,99.90
2017-10-19T20:32:04.001Z,99.90
2017-10-19T20:34:32.567Z,99.90
2017-10-19T20:37:00.938Z,99.90
2017-10-19T20:39:28.482Z,99.90
2017-10-19T20:41:55.978Z,99.90
2017-10-19T20:44:24.243Z,99.90
2017-10-19T20:46:51.786Z,99.90
2017-10-19T20:49:19.287Z,99.90
2017-10-19T20:51:47.571Z,99.90
2017-10-19T20:54:15.866Z,99.90
2017-10-19T20:56:43.367Z,99.90
2017-10-19T20:59:10.902Z,99.90
2017-10-19T21:01:38.409Z,99.90
2017-10-19T21:04:06.679Z,99.90
2017-10-19T21:06:34.185Z,99.90
2017-10-19T21:09:01.703Z,99.90
2017-10-19T21:11:29.199Z,99.90
2017-10-19T21:13:56.710Z,99.90
2017-10-19T21:16:24.218Z,99.90
2017-10-19T21:18:51.719Z,99.90
2017-10-19T21:21:19.225Z,99.90
2017-10-19T21:23:46.750Z,99.90
2017-10-19T21:26:14.255Z,99.90
2017-10-19T21:28:41.762Z,99.90
2017-10-19T21:31:09.287Z,99.90
2017-10-19T21:33:36.791Z,99.90
2017-10-19T21:36:04.292Z,99.90
2017-10-19T21:38:31.819Z,99.90
2017-10-19T21:40:59.306Z,99.90
2017-10-19T21:43:26.802Z,99.90
2017-10-19T21:45:54.322Z,99.90
2017-10-19T21:48:21.829Z,99.90
2017-10-19T21:50:49.330Z,99.90
2017-10-19T21:53:16.856Z,99.90
2017-10-19T21:55:45.114Z,99.90
2017-10-19T21:58:13.374Z,99.90
2017-10-19T22:00:40.885Z,99.90
2017-10-19T22:03:09.161Z,99.90
2017-10-19T22:05:36.684Z,99.90
2017-10-19T22:08:04.202Z,99.90
2017-10-19T22:10:31.714Z,99.90
2017-10-19T22:12:59.221Z,99.90
2017-10-19T22:15:27.506Z,99.90
2017-10-19T22:17:55.015Z,99.90
2017-10-19T22:20:22.545Z,99.90
2017-10-19T22:22:50.058Z,99.90
2017-10-19T22:25:17.558Z,99.90
2017-10-19T22:27:45.078Z,99.90
2017-10-19T22:30:13.366Z,99.90
2017-10-19T22:32:40.889Z,99.90
2017-10-19T22:35:08.378Z,99.90
2017-10-19T22:37:36.658Z,99.90
2017-10-19T22:40:04.919Z,99.90
2017-10-19T22:42:32.414Z,99.90
2017-10-19T22:44:59.927Z,99.90
2017-10-19T22:47:27.427Z,99.90
2017-10-19T22:49:54.950Z,99.90
2017-10-19T22:52:22.441Z,99.90
2017-10-19T22:54:51.318Z,99.90
2017-10-19T22:57:19.602Z,99.90
2017-10-19T22:59:47.872Z,99.90
2017-10-19T23:02:16.154Z,99.90
2017-10-19T23:04:44.434Z,99.90
2017-10-19T23:07:12.705Z,99.90
2017-10-19T23:09:40.966Z,99.90
2017-10-19T23:12:08.487Z,99.90
2017-10-19T23:14:35.975Z,99.90
2017-10-19T23:17:03.483Z,99.90
2017-10-19T23:19:30.994Z,99.90
2017-10-19T23:21:58.498Z,99.90
2017-10-19T23:24:26.003Z,99.90
2017-10-19T23:26:53.512Z,99.90
2017-10-19T23:29:21.011Z,99.90
2017-10-19T23:31:48.503Z,99.90
2017-10-19T23:34:16.012Z,99.90
2017-10-19T23:36:43.512Z,99.90
2017-10-19T23:39:11.025Z,99.90
2017-10-19T23:41:38.520Z,99.90
2017-10-19T23:44:06.788Z,99.90
2017-10-19T23:46:34.298Z,99.90
2017-10-19T23:49:02.597Z,99.90
2017-10-19T23:51:30.092Z,99.90
2017-10-19T23:53:57.602Z,99.90
2017-10-19T23:56:25.086Z,99.90
2017-10-19T23:58:52.576Z,99.90
